Time;durP1;ratioP1;P1;durP2;ratioP2;P2;SDS_P1;SDS_P2;PMS_P1;PMS_P2;Temp;Humidity;BMP_temperature;BMP_pressure;BME280_temperature;BME280_humidity;BME280_pressure;Samples;Min_cycle;Max_cycle;Signal;HPM_P1;HPM_P2
2024/03/12 00:00:32;;;;;;;109.53;26.83;;;;;;;3.33;100.00;100369.66;5033494;28;20427;-79
2024/03/12 00:03:02;;;;;;;172.40;28.92;;;;;;;3.19;100.00;100366.44;5044657;28;20419;-78
2024/03/12 00:05:37;;;;;;;141.23;28.25;;;;;;;3.06;100.00;100367.50;5057422;28;20448;-79
2024/03/12 00:08:10;;;;;;;131.17;27.93;;;;;;;3.06;100.00;100369.38;5046451;28;20427;-80
2024/03/12 00:10:43;;;;;;;139.85;28.88;;;;;;;3.03;100.00;100373.34;5046344;28;20434;-81
2024/03/12 00:13:17;;;;;;;142.18;28.38;;;;;;;3.03;100.00;100378.72;5053869;28;20426;-79
2024/03/12 00:15:51;;;;;;;208.02;27.40;;;;;;;2.94;100.00;100377.50;5063738;28;20419;-79
2024/03/12 00:18:25;;;;;;;162.68;27.10;;;;;;;2.84;100.00;100378.06;5058214;28;20452;-80
2024/03/12 00:20:54;;;;;;;96.13;26.90;;;;;;;3.06;100.00;100378.25;5046916;28;20427;-79
2024/03/12 00:23:22;;;;;;;108.55;27.90;;;;;;;3.08;100.00;100383.41;5063653;28;20423;-81
2024/03/12 00:25:56;;;;;;;115.20;26.95;;;;;;;3.02;100.00;100379.78;5061755;28;20891;-80
2024/03/12 00:28:30;;;;;;;134.73;28.52;;;;;;;2.92;100.00;100381.47;5056832;28;20419;-78
2024/03/12 00:31:05;;;;;;;140.05;28.23;;;;;;;2.84;100.00;100375.38;5049016;28;20442;-79
2024/03/12 00:33:39;;;;;;;108.70;27.67;;;;;;;2.91;100.00;100380.63;5060214;28;20420;-79
2024/03/12 00:36:08;;;;;;;115.75;28.23;;;;;;;2.97;100.00;100386.91;5062839;28;20415;-79
2024/03/12 00:38:40;;;;;;;130.00;27.80;;;;;;;3.09;100.00;100390.41;5063948;28;20983;-81
2024/03/12 00:41:08;;;;;;;105.18;28.05;;;;;;;3.16;100.00;100398.34;5047787;28;20440;-79
2024/03/12 00:43:36;;;;;;;120.63;27.63;;;;;;;3.15;100.00;100392.16;5060966;28;20409;-80
2024/03/12 00:46:09;;;;;;;130.80;27.70;;;;;;;3.18;100.00;100404.31;5050641;28;20435;-79
2024/03/12 00:48:37;;;;;;;138.03;27.83;;;;;;;3.11;100.00;100391.00;5051067;28;20447;-78
2024/03/12 00:51:11;;;;;;;190.80;29.80;;;;;;;2.98;100.00;100384.00;5048546;28;20441;-80
2024/03/12 00:53:39;;;;;;;166.50;29.65;;;;;;;3.14;100.00;100390.53;5064049;28;20425;-79
2024/03/12 00:56:15;;;;;;;123.88;30.10;;;;;;;3.28;100.00;100391.06;5048190;28;20425;-80
2024/03/12 00:58:48;;;;;;;141.25;29.52;;;;;;;3.19;100.00;100389.81;5044660;28;20968;-80
2024/03/12 01:01:20;;;;;;;164.60;29.70;;;;;;;3.10;100.00;100393.94;5036549;28;20444;-79
2024/03/12 01:03:48;;;;;;;189.13;29.48;;;;;;;3.16;100.00;100384.91;5049153;28;20419;-79
2024/03/12 01:06:21;;;;;;;216.30;29.67;;;;;;;3.00;100.00;100391.84;5059956;28;20499;-78
2024/03/12 01:08:49;;;;;;;103.57;30.45;;;;;;;3.23;100.00;100390.97;5039793;28;20805;-79
2024/03/12 01:11:23;;;;;;;137.90;30.70;;;;;;;3.15;100.00;100391.31;5044476;28;20415;-78
2024/03/12 01:13:58;;;;;;;146.90;30.98;;;;;;;3.17;100.00;100389.22;5056407;28;20425;-79
2024/03/12 01:16:32;;;;;;;151.85;31.42;;;;;;;3.18;100.00;100385.50;5047367;28;20433;-78
2024/03/12 01:19:07;;;;;;;86.38;30.17;;;;;;;3.32;100.00;100386.84;5058218;28;20436;-79
2024/03/12 01:21:41;;;;;;;108.83;30.50;;;;;;;3.29;100.00;100391.91;5057153;28;20419;-81
2024/03/12 01:24:09;;;;;;;166.13;29.98;;;;;;;3.20;100.00;100400.34;5062782;28;21065;-79
2024/03/12 01:26:44;;;;;;;144.10;30.07;;;;;;;3.34;100.00;100395.50;5039483;28;20452;-78
2024/03/12 01:29:17;;;;;;;90.82;29.95;;;;;;;3.32;100.00;100402.19;5057476;28;20920;-78
2024/03/12 01:31:52;;;;;;;100.35;29.85;;;;;;;3.28;100.00;100388.38;5047940;28;20435;-79
2024/03/12 01:34:26;;;;;;;90.90;29.42;;;;;;;3.36;100.00;100389.88;5057431;28;20424;-82
2024/03/12 01:37:00;;;;;;;81.78;29.58;;;;;;;3.31;100.00;100392.47;5037234;28;20436;-78
2024/03/12 01:39:28;;;;;;;145.63;29.33;;;;;;;3.33;100.00;100393.88;5053614;28;20425;-79
2024/03/12 01:41:56;;;;;;;99.90;28.33;;;;;;;3.47;100.00;100398.97;5040031;28;20441;-80
2024/03/12 01:44:30;;;;;;;158.73;28.00;;;;;;;3.22;100.00;100400.91;5053512;28;20437;-78
2024/03/12 01:47:05;;;;;;;117.00;27.90;;;;;;;3.23;100.00;100393.66;5053464;28;20484;-82
2024/03/12 01:49:33;;;;;;;89.63;28.63;;;;;;;3.34;100.00;100400.06;5040707;28;20444;-81
2024/03/12 01:52:02;;;;;;;90.88;27.50;;;;;;;3.24;100.00;100395.28;5048345;28;20434;-80
2024/03/12 01:54:35;;;;;;;70.72;28.05;;;;;;;3.26;100.00;100398.56;5043512;28;20434;-80
2024/03/12 01:57:03;;;;;;;117.90;28.08;;;;;;;3.31;100.00;100390.59;5056737;28;20429;-79
2024/03/12 01:59:34;;;;;;;139.10;29.20;;;;;;;3.36;100.00;100393.38;5056155;28;20428;-78
2024/03/12 02:02:03;;;;;;;102.82;29.45;;;;;;;3.43;100.00;100393.25;5038565;28;20421;-78
2024/03/12 02:04:39;;;;;;;80.80;28.60;;;;;;;3.51;100.00;100392.06;5047364;28;23569;-78
2024/03/12 02:07:07;;;;;;;138.75;30.45;;;;;;;3.44;100.00;100394.91;5051417;28;21118;-79
2024/03/12 02:09:36;;;;;;;76.75;30.60;;;;;;;3.42;100.00;100402.38;5061300;28;20941;-78
2024/03/12 02:12:04;;;;;;;51.97;29.50;;;;;;;3.45;100.00;100406.47;5043528;28;20435;-79
2024/03/12 02:14:34;;;;;;;62.50;30.42;;;;;;;3.31;100.00;100406.72;5038245;28;20441;-78
2024/03/12 02:17:07;;;;;;;75.15;29.25;;;;;;;3.30;100.00;100409.66;5049007;28;20439;-78
2024/03/12 02:19:42;;;;;;;105.78;28.90;;;;;;;3.35;100.00;100402.50;5059095;28;20469;-78
2024/03/12 02:22:15;;;;;;;48.33;28.60;;;;;;;3.39;100.00;100398.28;5041088;28;20432;-80
2024/03/12 02:24:46;;;;;;;63.35;29.48;;;;;;;3.35;100.00;100399.81;5064418;28;20441;-78
2024/03/12 02:27:20;;;;;;;48.73;28.60;;;;;;;3.53;100.00;100398.81;5040434;28;21122;-79
2024/03/12 02:29:53;;;;;;;50.08;28.73;;;;;;;3.42;100.00;100401.56;5042707;28;20420;-80
2024/03/12 02:32:27;;;;;;;57.00;28.95;;;;;;;3.40;100.00;100405.31;5038477;28;21102;-80
2024/03/12 02:34:56;;;;;;;54.25;28.13;;;;;;;3.30;100.00;100409.66;5054391;28;20452;-78
2024/03/12 02:37:28;;;;;;;49.28;27.42;;;;;;;3.41;100.00;100408.78;5048359;28;20430;-78
2024/03/12 02:39:57;;;;;;;50.40;27.65;;;;;;;3.31;100.00;100400.53;5046825;28;20423;-79
2024/03/12 02:42:28;;;;;;;43.90;26.10;;;;;;;3.40;100.00;100401.81;5044621;28;20439;-78
2024/03/12 02:45:01;;;;;;;46.27;28.10;;;;;;;3.40;100.00;100408.00;5043757;28;20434;-78
2024/03/12 02:47:29;;;;;;;62.95;28.65;;;;;;;3.36;100.00;100406.84;5052452;28;20437;-79
2024/03/12 02:49:59;;;;;;;49.75;27.52;;;;;;;3.18;100.00;100405.13;5057022;28;20424;-78
2024/03/12 02:52:32;;;;;;;127.00;28.58;;;;;;;3.10;100.00;100402.81;5042644;28;20914;-78
2024/03/12 02:55:08;;;;;;;185.63;29.20;;;;;;;3.09;100.00;100411.91;5063828;28;20432;-78
2024/03/12 02:57:36;;;;;;;312.35;29.45;;;;;;;2.85;100.00;100403.09;5046888;28;20891;-78
2024/03/12 03:00:11;;;;;;;204.07;27.73;;;;;;;2.89;100.00;100405.06;5043910;28;20923;-78
2024/03/12 03:02:45;;;;;;;131.30;27.10;;;;;;;2.94;100.00;100403.53;5047305;28;20919;-78
2024/03/12 03:05:14;;;;;;;141.18;28.40;;;;;;;2.95;100.00;100407.88;5040153;28;20422;-78
2024/03/12 03:07:42;;;;;;;257.40;29.85;;;;;;;2.83;100.00;100403.31;5058498;28;20423;-78
2024/03/12 03:10:17;;;;;;;434.73;31.55;;;;;;;2.77;100.00;100403.44;5044349;28;20435;-79
2024/03/12 03:12:51;;;;;;;275.75;28.20;;;;;;;2.77;100.00;100398.88;5059753;28;20886;-80
2024/03/12 03:15:20;;;;;;;191.30;28.17;;;;;;;2.75;100.00;100411.75;5053920;28;20417;-80
2024/03/12 03:17:54;;;;;;;337.88;28.27;;;;;;;2.62;100.00;100412.78;5056997;28;20421;-80
2024/03/12 03:20:22;;;;;;;292.20;28.65;;;;;;;2.60;100.00;100416.78;5060022;28;20415;-79
2024/03/12 03:22:55;;;;;;;347.07;28.07;;;;;;;2.48;100.00;100416.75;5043447;28;21379;-78
2024/03/12 03:25:25;;;;;;;361.17;27.45;;;;;;;2.41;100.00;100416.84;5043727;28;20431;-79
2024/03/12 03:27:53;;;;;;;361.65;27.30;;;;;;;2.45;100.00;100425.28;5046001;28;20919;-78
2024/03/12 03:30:22;;;;;;;255.55;25.30;;;;;;;2.41;100.00;100416.84;5055695;28;20423;-79
2024/03/12 03:32:55;;;;;;;241.30;25.55;;;;;;;2.43;100.00;100422.00;5061118;28;20419;-78
2024/03/12 03:35:29;;;;;;;152.40;25.20;;;;;;;2.49;100.00;100421.88;5039198;28;20425;-79
2024/03/12 03:37:59;;;;;;;119.65;25.60;;;;;;;2.54;100.00;100424.69;5045147;28;20755;-78
2024/03/12 03:40:29;;;;;;;94.27;26.10;;;;;;;2.57;100.00;100426.09;5058907;28;20416;-78
2024/03/12 03:43:02;;;;;;;158.97;27.23;;;;;;;2.54;100.00;100423.88;5052621;28;20420;-78
2024/03/12 03:45:36;;;;;;;110.18;27.27;;;;;;;2.62;100.00;100412.78;5057560;28;20415;-78
2024/03/12 03:48:09;;;;;;;88.38;25.73;;;;;;;2.68;100.00;100427.13;5057827;28;20425;-79
2024/03/12 03:50:42;;;;;;;121.07;25.05;;;;;;;2.47;100.00;100423.16;5060085;28;20430;-78
2024/03/12 03:53:15;;;;;;;123.50;23.48;;;;;;;2.44;100.00;100429.00;5065621;28;20426;-79
2024/03/12 03:55:50;;;;;;;144.18;23.55;;;;;;;2.32;100.00;100427.13;5062059;28;20428;-82
2024/03/12 03:58:23;;;;;;;48.85;23.38;;;;;;;2.59;100.00;100434.75;5046521;28;20434;-79
2024/03/12 04:00:52;;;;;;;41.80;23.90;;;;;;;2.70;100.00;100431.22;5040133;28;20425;-78
2024/03/12 04:03:25;;;;;;;60.88;24.75;;;;;;;2.63;100.00;100429.72;5056945;28;20918;-78
2024/03/12 04:05:56;;;;;;;36.65;23.80;;;;;;;2.79;100.00;100437.09;5059210;28;20417;-79
2024/03/12 04:08:25;;;;;;;36.38;24.25;;;;;;;2.88;100.00;100432.16;5062516;28;20423;-81
2024/03/12 04:10:54;;;;;;;37.90;25.17;;;;;;;2.93;100.00;100437.66;5039279;28;20890;-79
2024/03/12 04:13:27;;;;;;;38.38;24.75;;;;;;;2.91;100.00;100434.38;5052341;28;20508;-78
2024/03/12 04:16:01;;;;;;;37.28;25.10;;;;;;;2.89;100.00;100431.13;5042599;28;20428;-79
2024/03/12 04:18:29;;;;;;;41.50;26.30;;;;;;;2.92;100.00;100440.59;5055827;28;20432;-79
2024/03/12 04:21:02;;;;;;;40.05;25.60;;;;;;;2.94;100.00;100436.63;5049039;28;20431;-79
2024/03/12 04:23:31;;;;;;;39.53;25.50;;;;;;;2.95;100.00;100434.75;5039787;28;20904;-80
2024/03/12 04:26:06;;;;;;;40.80;25.98;;;;;;;2.99;100.00;100444.78;5048717;28;20458;-79
2024/03/12 04:28:42;;;;;;;38.63;25.63;;;;;;;2.87;100.00;100441.28;5057414;28;20430;-81
2024/03/12 04:31:10;;;;;;;37.10;23.52;;;;;;;2.91;100.00;100437.06;5039394;28;20438;-80
2024/03/12 04:33:43;;;;;;;42.25;26.08;;;;;;;2.98;100.00;100447.72;5058578;28;20432;-79
2024/03/12 04:36:13;;;;;;;43.13;26.27;;;;;;;3.01;100.00;100453.44;5058755;28;20427;-78
2024/03/12 04:38:41;;;;;;;39.22;25.58;;;;;;;3.09;100.00;100451.44;5044148;28;20432;-78
2024/03/12 04:41:17;;;;;;;43.83;26.65;;;;;;;3.03;100.00;100450.50;5047362;28;20431;-79
2024/03/12 04:43:46;;;;;;;41.47;25.45;;;;;;;3.05;100.00;100451.09;5049191;28;20434;-79
2024/03/12 04:46:15;;;;;;;40.70;26.30;;;;;;;2.96;100.00;100450.63;5046863;28;20913;-78
2024/03/12 04:48:43;;;;;;;42.23;26.33;;;;;;;2.98;100.00;100451.19;5060200;28;20423;-81
2024/03/12 04:51:12;;;;;;;39.23;25.50;;;;;;;3.05;100.00;100459.16;5057749;28;20416;-79
2024/03/12 04:53:45;;;;;;;38.53;25.65;;;;;;;3.12;100.00;100451.81;5059574;28;20417;-79
2024/03/12 04:56:20;;;;;;;39.22;26.00;;;;;;;3.14;100.00;100457.75;5046077;28;20425;-79
2024/03/12 04:58:53;;;;;;;39.75;26.02;;;;;;;3.08;100.00;100463.25;5060151;28;20752;-79
2024/03/12 05:01:26;;;;;;;40.33;25.63;;;;;;;3.08;100.00;100461.41;5037474;28;20422;-79
2024/03/12 05:03:55;;;;;;;41.15;25.92;;;;;;;3.12;100.00;100461.72;5056053;28;20437;-79
2024/03/12 05:06:28;;;;;;;40.15;25.98;;;;;;;3.14;100.00;100470.38;5054177;28;20431;-78
2024/03/12 05:09:01;;;;;;;40.72;26.00;;;;;;;3.14;100.00;100459.63;5057633;28;20434;-78
2024/03/12 05:11:36;;;;;;;37.60;24.52;;;;;;;3.15;100.00;100462.06;5057041;28;20422;-78
2024/03/12 05:14:05;;;;;;;36.83;25.15;;;;;;;3.01;100.00;100469.56;5040860;28;20431;-78
2024/03/12 05:16:39;;;;;;;37.03;24.67;;;;;;;3.02;100.00;100473.88;5056604;28;20430;-78
2024/03/12 05:19:12;;;;;;;35.30;23.98;;;;;;;3.14;100.00;100475.75;5038174;28;20430;-80
2024/03/12 05:21:45;;;;;;;34.92;24.65;;;;;;;3.24;100.00;100478.66;5058290;28;20460;-78
2024/03/12 05:24:19;;;;;;;37.05;24.05;;;;;;;3.23;100.00;100479.69;5048094;28;20791;-79
2024/03/12 05:26:54;;;;;;;35.58;24.15;;;;;;;3.26;100.00;100484.63;5044134;28;20490;-81
2024/03/12 05:29:36;;;;;;;35.17;24.27;;;;;;;3.32;100.00;100483.69;5046446;28;20439;-78
2024/03/12 05:32:17;;;;;;;37.60;25.08;;;;;;;3.34;100.00;100484.28;5040299;28;20799;-77
2024/03/12 05:34:47;;;;;;;37.47;24.30;;;;;;;3.34;100.00;100484.28;5062585;28;20872;-79
2024/03/12 05:37:28;;;;;;;37.23;24.83;;;;;;;3.37;100.00;100485.66;5057576;28;20976;-79
2024/03/12 05:40:12;;;;;;;38.58;24.58;;;;;;;3.45;100.00;100490.66;5055876;28;20420;-78
2024/03/12 05:48:29;;;;;;;35.70;23.23;;;;;;;3.39;100.00;100499.69;5011494;28;20782;-78
2024/03/12 05:50:59;;;;;;;34.87;23.23;;;;;;;3.39;100.00;100505.88;5058593;28;20429;-78
2024/03/12 05:53:32;;;;;;;37.17;24.02;;;;;;;3.44;100.00;100509.72;5056290;28;20427;-79
2024/03/12 05:56:09;;;;;;;37.00;24.73;;;;;;;3.52;100.00;100510.22;5042871;28;20437;-80
2024/03/12 05:58:39;;;;;;;39.17;25.60;;;;;;;3.58;100.00;100516.50;5056439;28;20427;-80
2024/03/12 06:01:08;;;;;;;38.30;24.60;;;;;;;3.64;100.00;100509.34;5039094;28;20427;-78
2024/03/12 06:03:41;;;;;;;45.58;27.15;;;;;;;3.71;100.00;100512.72;5053955;28;21161;-79
2024/03/12 06:06:10;;;;;;;44.03;27.20;;;;;;;3.72;100.00;100517.88;5057358;28;20420;-78
2024/03/12 06:08:44;;;;;;;44.50;26.38;;;;;;;3.78;100.00;100520.66;5057212;28;20428;-79
2024/03/12 06:11:18;;;;;;;39.83;24.75;;;;;;;3.84;100.00;100522.41;5040623;28;20435;-80
2024/03/12 06:13:47;;;;;;;40.15;24.75;;;;;;;3.89;100.00;100522.50;5041015;28;22679;-78
2024/03/12 06:16:21;;;;;;;39.30;24.43;;;;;;;3.88;100.00;100519.00;5045081;28;20902;-78
2024/03/12 06:18:49;;;;;;;40.30;24.88;;;;;;;3.85;100.00;100526.72;5043299;28;20442;-78
2024/03/12 06:21:22;;;;;;;39.47;24.97;;;;;;;3.87;100.00;100528.13;5043763;28;20423;-77
2024/03/12 06:23:53;;;;;;;36.65;23.90;;;;;;;3.99;100.00;100533.50;5045178;28;20429;-79
2024/03/12 06:26:21;;;;;;;36.08;23.70;;;;;;;3.69;100.00;100531.81;5060915;28;20494;-77
2024/03/12 06:28:56;;;;;;;34.80;23.58;;;;;;;3.82;100.00;100537.97;5045812;28;20440;-81
2024/03/12 06:31:34;;;;;;;33.95;23.20;;;;;;;3.75;100.00;100535.41;5036419;28;20428;-78
2024/03/12 06:34:08;;;;;;;36.67;24.27;;;;;;;3.89;100.00;100541.34;5041547;28;20436;-79
2024/03/12 06:36:41;;;;;;;36.92;24.42;;;;;;;3.89;100.00;100535.97;5057196;28;20428;-79
2024/03/12 06:39:17;;;;;;;37.10;25.00;;;;;;;3.91;100.00;100544.63;5065349;28;20500;-78
2024/03/12 06:41:46;;;;;;;37.63;25.10;;;;;;;4.06;100.00;100546.78;5060573;28;20415;-78
2024/03/12 06:44:25;;;;;;;37.47;24.90;;;;;;;4.07;100.00;100548.44;5060139;28;20425;-80
2024/03/12 06:46:54;;;;;;;36.95;25.23;;;;;;;4.15;100.00;100547.25;5055985;28;20423;-84
2024/03/12 06:49:27;;;;;;;35.33;24.55;;;;;;;4.13;100.00;100555.56;5050308;28;20428;-81
2024/03/12 06:52:00;;;;;;;36.45;24.35;;;;;;;4.18;100.00;100552.94;5061927;28;20420;-82
2024/03/12 06:54:32;;;;;;;34.65;24.17;;;;;;;4.23;100.00;100560.34;5045470;28;20428;-77
2024/03/12 06:57:00;;;;;;;33.67;22.98;;;;;;;4.07;100.00;100559.22;5057053;28;20427;-78
2024/03/12 06:59:30;;;;;;;34.13;23.17;;;;;;;4.34;100.00;100562.16;5056381;28;20437;-78
2024/03/12 07:02:05;;;;;;;34.47;23.67;;;;;;;4.15;100.00;100558.81;5046662;28;20429;-78
2024/03/12 07:04:43;;;;;;;33.13;22.77;;;;;;;4.15;100.00;100558.81;5056807;28;20941;-78
2024/03/12 07:07:13;;;;;;;34.07;23.17;;;;;;;4.19;100.00;100554.59;5043503;28;20427;-78
2024/03/12 07:09:42;;;;;;;35.40;23.17;;;;;;;4.17;100.00;100555.88;5043541;28;20442;-79
2024/03/12 07:12:16;;;;;;;34.90;23.40;;;;;;;4.19;100.00;100573.44;5061384;28;20413;-78
2024/03/12 07:14:56;;;;;;;33.53;22.83;;;;;;;4.32;100.00;100563.44;5055463;28;20451;-81
2024/03/12 07:17:24;;;;;;;34.23;23.97;;;;;;;4.42;100.00;100569.03;5041456;28;20425;-79
2024/03/12 07:19:52;;;;;;;35.17;23.35;;;;;;;4.50;100.00;100567.81;5063471;28;20415;-78
2024/03/12 07:22:21;;;;;;;37.58;24.08;;;;;;;4.52;100.00;100563.81;5055391;28;20413;-77
2024/03/12 07:24:55;;;;;;;34.67;23.40;;;;;;;4.60;100.00;100568.81;5051652;28;20444;-81
2024/03/12 07:27:23;;;;;;;35.15;24.38;;;;;;;4.65;100.00;100569.97;5032815;28;20427;-78
2024/03/12 07:29:53;;;;;;;35.20;24.20;;;;;;;4.68;100.00;100573.00;5046186;28;20415;-78
2024/03/12 07:32:21;;;;;;;33.30;22.83;;;;;;;4.89;100.00;100576.06;5044030;28;20415;-80
2024/03/12 07:34:55;;;;;;;33.28;23.25;;;;;;;4.85;100.00;100586.50;5044150;28;20411;-79
2024/03/12 07:37:28;;;;;;;33.85;23.33;;;;;;;5.00;100.00;100598.59;5037170;28;20911;-79
2024/03/12 07:39:57;;;;;;;33.13;23.02;;;;;;;5.00;100.00;100585.09;5037428;28;20418;-81
2024/03/12 07:42:30;;;;;;;32.75;22.98;;;;;;;5.10;100.00;100587.97;5052648;28;20784;-80
2024/03/12 07:45:09;;;;;;;32.92;22.42;;;;;;;5.15;100.00;100590.78;5047506;28;20424;-80
2024/03/12 07:47:43;;;;;;;32.60;22.55;;;;;;;5.26;100.00;100581.75;5038340;28;20443;-80
2024/03/12 07:50:17;;;;;;;36.42;23.60;;;;;;;5.44;100.00;100574.44;5034543;28;20427;-80
2024/03/12 07:52:50;;;;;;;31.40;22.23;;;;;;;5.36;100.00;100583.78;5038029;28;20458;-82
2024/03/12 07:55:19;;;;;;;33.70;23.15;;;;;;;5.33;100.00;100591.56;5028457;28;20425;-79
2024/03/12 07:57:47;;;;;;;33.63;23.25;;;;;;;5.19;100.00;100589.22;5056927;28;20419;-78
2024/03/12 08:00:17;;;;;;;34.10;23.27;;;;;;;5.26;100.00;100595.25;5030470;28;20419;-80
2024/03/12 08:02:51;;;;;;;32.00;23.05;;;;;;;5.42;100.00;100593.59;5050116;28;20474;-78
2024/03/12 08:05:19;;;;;;;33.97;23.65;;;;;;;5.39;100.00;100582.50;5032925;28;20431;-78
2024/03/12 08:07:48;;;;;;;34.25;23.50;;;;;;;5.47;100.00;100587.47;5039711;28;20434;-78
2024/03/12 08:10:21;;;;;;;33.93;23.30;;;;;;;5.49;100.00;100593.41;5029596;28;21011;-79
2024/03/12 08:12:54;;;;;;;33.45;23.30;;;;;;;5.45;100.00;100601.22;5043730;28;20434;-80
2024/03/12 08:15:29;;;;;;;35.25;22.85;;;;;;;5.53;100.00;100613.44;5046730;28;20465;-79
2024/03/12 08:18:03;;;;;;;33.70;22.80;;;;;;;5.52;100.00;100603.72;5046610;28;20433;-81
2024/03/12 08:20:36;;;;;;;33.92;22.25;;;;;;;5.59;100.00;100606.25;5042266;28;20431;-79
2024/03/12 08:23:05;;;;;;;34.72;22.77;;;;;;;5.51;100.00;100615.59;5045689;28;21143;-79
2024/03/12 08:25:33;;;;;;;36.33;23.83;;;;;;;5.44;100.00;100623.03;5032047;28;20462;-78
2024/03/12 08:28:01;;;;;;;35.08;23.23;;;;;;;5.50;100.00;100611.25;5023698;28;20435;-79
2024/03/12 08:30:36;;;;;;;35.58;22.67;;;;;;;5.40;100.00;100624.59;5036192;28;22167;-79
2024/03/12 08:33:10;;;;;;;34.67;22.90;;;;;;;5.45;100.00;100617.41;5031831;28;21001;-80
2024/03/12 08:35:38;;;;;;;34.20;22.95;;;;;;;5.45;100.00;100622.81;5039226;28;20438;-80
2024/03/12 08:38:06;;;;;;;33.92;23.10;;;;;;;5.55;100.00;100618.59;5036334;28;20531;-81
2024/03/12 08:40:35;;;;;;;33.60;22.20;;;;;;;5.72;100.00;100624.00;5041766;28;20436;-76
2024/03/12 08:43:09;;;;;;;30.98;21.65;;;;;;;5.60;100.00;100634.88;5054775;28;20407;-78
2024/03/12 08:45:44;;;;;;;33.60;22.27;;;;;;;5.62;100.00;100630.03;5031342;28;20438;-78
2024/03/12 08:48:17;;;;;;;36.92;22.92;;;;;;;5.51;100.00;100634.50;5049456;28;20427;-79
2024/03/12 08:50:46;;;;;;;34.15;22.58;;;;;;;5.64;100.00;100633.31;5027297;28;20427;-78
2024/03/12 08:53:19;;;;;;;34.92;22.27;;;;;;;5.87;100.00;100628.75;5027310;28;20427;-79
2024/03/12 08:55:48;;;;;;;33.45;22.05;;;;;;;5.97;100.00;100626.22;5033264;28;20435;-78
2024/03/12 08:58:23;;;;;;;36.10;22.88;;;;;;;5.88;100.00;100636.63;5034872;28;20430;-81
2024/03/12 09:00:53;;;;;;;34.28;22.02;;;;;;;5.99;100.00;100634.91;5032492;28;20419;-79
2024/03/12 09:03:22;;;;;;;32.03;21.67;;;;;;;6.02;100.00;100637.13;5047658;28;20454;-79
2024/03/12 09:05:56;;;;;;;32.25;21.02;;;;;;;6.02;100.00;100633.59;5031626;28;20930;-77
2024/03/12 09:08:29;;;;;;;32.65;21.67;;;;;;;6.28;100.00;100642.81;5036561;28;20431;-80
2024/03/12 09:10:57;;;;;;;32.77;21.77;;;;;;;6.48;100.00;100644.97;5049421;28;20456;-78
2024/03/12 09:13:31;;;;;;;32.70;21.60;;;;;;;6.62;100.00;100639.97;5031966;28;20431;-80
2024/03/12 09:16:01;;;;;;;30.63;20.58;;;;;;;6.67;100.00;100644.59;5050605;28;20426;-79
2024/03/12 09:18:30;;;;;;;29.30;19.20;;;;;;;6.73;100.00;100643.59;5033484;28;20416;-77
2024/03/12 09:21:04;;;;;;;26.83;18.15;;;;;;;6.64;100.00;100651.34;5038236;28;20438;-80
2024/03/12 09:23:33;;;;;;;26.33;18.23;;;;;;;6.83;100.00;100657.22;5032240;28;20434;-78
2024/03/12 09:26:03;;;;;;;27.37;18.60;;;;;;;6.85;100.00;100665.06;5036915;28;20493;-81
2024/03/12 09:28:37;;;;;;;27.58;18.77;;;;;;;7.09;100.00;100662.88;5048274;28;20435;-81
2024/03/12 09:31:08;;;;;;;29.25;19.60;;;;;;;7.15;100.00;100661.84;5027920;28;20423;-81
2024/03/12 09:33:44;;;;;;;26.83;17.47;;;;;;;7.20;100.00;100655.69;5053645;28;20420;-79
2024/03/12 09:36:18;;;;;;;26.07;18.50;;;;;;;7.41;100.00;100667.47;5031021;28;20423;-78
2024/03/12 09:38:48;;;;;;;27.73;18.75;;;;;;;7.53;100.00;100665.41;5032625;28;20416;-81
2024/03/12 09:41:23;;;;;;;26.50;18.50;;;;;;;7.57;100.00;100661.09;5032668;28;20916;-81
2024/03/12 09:43:53;;;;;;;26.30;17.70;;;;;;;7.70;100.00;100659.03;5031345;28;20442;-79
2024/03/12 09:46:29;;;;;;;27.67;18.95;;;;;;;7.86;100.00;100665.34;5051892;28;21019;-80
2024/03/12 09:48:58;;;;;;;26.20;18.80;;;;;;;7.94;100.00;100662.97;5045954;28;21200;-78
2024/03/12 09:51:26;;;;;;;26.52;18.05;;;;;;;7.83;100.00;100672.13;5032224;28;20419;-80
2024/03/12 09:53:58;;;;;;;26.17;17.93;;;;;;;8.03;100.00;100676.81;5048899;28;20473;-81
2024/03/12 09:56:27;;;;;;;27.52;18.50;;;;;;;7.82;100.00;100674.00;5039713;28;20427;-81
2024/03/12 09:58:56;;;;;;;26.02;18.13;;;;;;;7.83;100.00;100680.25;5046214;28;20416;-79
2024/03/12 10:01:25;;;;;;;26.40;18.58;;;;;;;8.00;100.00;100672.75;5044056;28;20448;-79
2024/03/12 10:03:59;;;;;;;27.58;18.60;;;;;;;8.07;100.00;100672.50;5045500;28;20965;-77
2024/03/12 10:06:29;;;;;;;27.27;18.55;;;;;;;8.12;100.00;100688.81;5047037;28;21044;-81
2024/03/12 10:09:05;;;;;;;27.23;18.05;;;;;;;8.45;100.00;100678.69;5044516;28;20422;-80
2024/03/12 10:11:33;;;;;;;25.02;17.30;;;;;;;8.44;100.00;100678.94;5042858;28;20429;-77
2024/03/12 10:14:03;;;;;;;25.30;17.17;;;;;;;8.63;100.00;100680.09;5035977;28;20459;-78
2024/03/12 10:16:37;;;;;;;26.98;18.40;;;;;;;8.76;100.00;100678.78;5045881;28;20741;-85
2024/03/12 10:19:09;;;;;;;24.63;17.38;;;;;;;8.85;100.00;100679.06;5033051;28;20811;-78
2024/03/12 10:21:44;;;;;;;23.13;16.17;;;;;;;8.95;100.00;100678.25;5043403;28;20419;-78
2024/03/12 10:24:21;;;;;;;23.73;15.85;;;;;;;9.12;100.00;100678.84;5042842;28;20428;-80
2024/03/12 10:27:05;;;;;;;23.10;14.10;;;;;;;9.03;100.00;100677.72;5005614;28;20431;-81
2024/03/12 10:29:38;;;;;;;22.00;14.32;;;;;;;8.96;100.00;100679.91;5049031;28;20422;-80
2024/03/12 10:32:19;;;;;;;22.17;14.10;;;;;;;9.02;100.00;100676.13;5042946;28;20416;-78
2024/03/12 10:34:49;;;;;;;21.95;14.95;;;;;;;9.12;100.00;100678.03;5044192;28;20430;-79
2024/03/12 10:37:29;;;;;;;21.83;13.95;;;;;;;9.56;100.00;100687.56;5052359;28;20408;-80
2024/03/12 10:40:14;;;;;;;24.48;15.40;;;;;;;9.41;100.00;100682.94;5029360;28;21286;-80
2024/03/12 10:42:52;;;;;;;24.95;15.30;;;;;;;9.42;100.00;100684.53;5048929;28;20780;-80
2024/03/12 10:45:27;;;;;;;26.25;15.93;;;;;;;9.61;100.00;100682.94;5033480;28;20431;-79
2024/03/12 10:48:06;;;;;;;26.58;15.82;;;;;;;9.46;100.00;100691.06;5033128;28;20416;-78
2024/03/12 10:50:42;;;;;;;27.13;15.60;;;;;;;9.51;100.00;100685.63;5042098;28;20424;-79
2024/03/12 10:53:12;;;;;;;24.05;15.25;;;;;;;9.52;100.00;100684.56;5029837;28;20423;-81
2024/03/12 10:55:45;;;;;;;24.20;15.10;;;;;;;9.49;100.00;100679.66;5025900;28;20419;-81
2024/03/12 10:58:15;;;;;;;24.92;15.20;;;;;;;9.25;100.00;100676.66;5050952;28;20422;-81
2024/03/12 11:00:49;;;;;;;23.38;14.93;;;;;;;9.14;100.00;100681.28;5048184;28;20428;-79
2024/03/12 11:03:23;;;;;;;24.55;14.48;;;;;;;9.33;100.00;100684.28;5035479;28;20417;-79
2024/03/12 11:05:55;;;;;;;23.50;14.68;;;;;;;9.25;100.00;100687.53;5026960;28;20427;-80
2024/03/12 11:08:28;;;;;;;22.55;14.32;;;;;;;9.29;100.00;100686.72;5030265;28;20419;-77
2024/03/12 11:11:03;;;;;;;23.27;14.27;;;;;;;9.05;100.00;100681.00;5051053;28;21124;-77
2024/03/12 11:13:34;;;;;;;24.40;14.75;;;;;;;9.15;100.00;100678.28;5026726;28;20412;-81
2024/03/12 11:16:12;;;;;;;24.17;14.43;;;;;;;9.21;100.00;100681.00;5030922;28;20415;-81
2024/03/12 11:18:47;;;;;;;23.63;14.20;;;;;;;9.42;100.00;100690.81;5046068;28;20419;-81
2024/03/12 11:21:23;;;;;;;24.57;14.47;;;;;;;9.45;100.00;100687.53;5048534;28;21412;-81
2024/03/12 11:23:56;;;;;;;22.63;14.23;;;;;;;9.51;100.00;100685.63;5046226;28;20921;-79
2024/03/12 11:26:30;;;;;;;24.55;14.38;;;;;;;9.62;100.00;100683.72;5000475;28;20416;-82
2024/03/12 11:29:03;;;;;;;24.48;14.23;;;;;;;9.57;100.00;100679.13;5027599;28;20427;-81
2024/03/12 11:31:37;;;;;;;23.33;14.30;;;;;;;9.70;100.00;100683.19;5028558;28;20430;-80
2024/03/12 11:34:06;;;;;;;23.85;13.80;;;;;;;9.70;100.00;100683.97;5030031;28;20419;-81